createdAt,value
2019-05-25T00:00:39.168Z,2.87
2019-05-25T00:03:07.580Z,3.20
2019-05-25T00:05:36.064Z,3.22
2019-05-25T00:08:04.599Z,2.83
2019-05-25T00:10:33.035Z,2.83
2019-05-25T00:13:01.426Z,3.10
2019-05-25T00:15:29.833Z,2.90
2019-05-25T00:17:58.227Z,3.03
2019-05-25T00:20:26.885Z,2.80
2019-05-25T00:22:55.285Z,2.90
2019-05-25T00:25:23.673Z,3.00
2019-05-25T00:27:52.080Z,2.37
2019-05-25T00:30:20.815Z,2.50
2019-05-25T00:32:49.225Z,2.50
2019-05-25T00:35:17.623Z,2.52
2019-05-25T00:37:46.043Z,2.37
2019-05-25T00:40:14.676Z,2.40
2019-05-25T00:42:43.081Z,2.60
2019-05-25T00:45:12.015Z,2.83
2019-05-25T00:47:40.431Z,2.33
2019-05-25T00:50:09.065Z,2.40
2019-05-25T00:52:37.455Z,2.60
2019-05-25T00:55:07.717Z,3.20
2019-05-25T00:57:36.121Z,2.77
2019-05-25T01:00:09.143Z,2.67
2019-05-25T01:02:39.282Z,2.70
2019-05-25T01:05:07.749Z,2.60
2019-05-25T01:07:36.160Z,2.40
2019-05-25T01:10:06.694Z,2.23
2019-05-25T01:12:35.102Z,2.37
2019-05-25T01:15:05.641Z,2.33
2019-05-25T01:17:34.134Z,2.70
2019-05-25T01:20:02.535Z,2.45
2019-05-25T01:22:30.946Z,2.77
2019-05-25T01:24:59.426Z,3.10
2019-05-25T01:27:27.826Z,2.90
2019-05-25T01:29:56.221Z,2.87
2019-05-25T01:32:24.624Z,2.70
2019-05-25T01:34:53.194Z,2.63
2019-05-25T01:37:21.729Z,2.50
2019-05-25T01:39:50.474Z,2.30
2019-05-25T01:42:18.888Z,3.07
2019-05-25T01:44:47.282Z,2.90
2019-05-25T01:47:15.678Z,2.87
2019-05-25T01:49:44.381Z,3.40
2019-05-25T01:52:12.774Z,2.83
2019-05-25T01:54:41.206Z,2.67
2019-05-25T01:57:09.593Z,2.57
2019-05-25T01:59:38.000Z,2.43
2019-05-25T02:02:06.791Z,2.70
2019-05-25T02:04:35.207Z,2.87
2019-05-25T02:07:03.666Z,2.60
2019-05-25T02:09:32.094Z,2.90
2019-05-25T02:12:00.615Z,2.60
2019-05-25T02:14:29.028Z,2.90
2019-05-25T02:16:57.425Z,2.40
2019-05-25T02:19:25.835Z,2.70
2019-05-25T02:21:54.227Z,2.47
2019-05-25T02:24:22.633Z,2.70
2019-05-25T02:26:51.056Z,3.10
2019-05-25T02:29:19.481Z,2.87
2019-05-25T02:31:48.143Z,2.87
2019-05-25T02:34:16.553Z,3.07
2019-05-25T02:36:44.960Z,3.00
2019-05-25T02:39:13.366Z,2.57
2019-05-25T02:41:41.823Z,2.33
2019-05-25T02:44:10.301Z,2.50
2019-05-25T02:46:38.697Z,2.80
2019-05-25T02:49:07.104Z,2.90
2019-05-25T02:51:35.766Z,2.63
2019-05-25T02:54:04.311Z,2.50
2019-05-25T02:56:32.705Z,2.70
2019-05-25T02:59:01.123Z,2.60
2019-05-25T03:01:29.521Z,2.45
2019-05-25T03:03:57.918Z,3.00
2019-05-25T03:06:27.991Z,2.50
2019-05-25T03:08:57.141Z,3.10
2019-05-25T03:11:26.872Z,3.30
2019-05-25T03:13:55.944Z,3.17
2019-05-25T03:16:24.690Z,3.50
2019-05-25T03:18:53.077Z,3.40
2019-05-25T03:21:21.739Z,3.70
2019-05-25T03:23:50.132Z,3.50
2019-05-25T03:26:18.542Z,3.37
2019-05-25T03:28:46.935Z,3.10
2019-05-25T03:31:15.673Z,3.37
2019-05-25T03:33:44.072Z,3.80
2019-05-25T03:36:12.470Z,3.73
2019-05-25T03:38:40.861Z,4.00
2019-05-25T03:41:09.283Z,3.63
2019-05-25T03:43:37.680Z,3.57
2019-05-25T03:46:06.308Z,3.90
2019-05-25T03:48:35.350Z,3.40
2019-05-25T03:51:04.031Z,3.70
2019-05-25T03:53:32.422Z,3.20
2019-05-25T03:56:05.741Z,3.60
2019-05-25T03:58:31.164Z,3.20
2019-05-25T04:00:59.601Z,3.50
2019-05-25T04:03:28.268Z,3.10
2019-05-25T04:05:56.668Z,3.13
2019-05-25T04:08:25.099Z,3.77
2019-05-25T04:10:53.498Z,3.67
2019-05-25T04:13:21.887Z,3.57
2019-05-25T04:15:50.303Z,3.63
2019-05-25T04:18:18.695Z,5.03
2019-05-25T04:20:47.115Z,4.33
2019-05-25T04:23:15.516Z,4.17
2019-05-25T04:25:43.966Z,4.23
2019-05-25T04:28:12.309Z,4.73
2019-05-25T04:30:40.727Z,4.40
2019-05-25T04:33:09.125Z,4.37
2019-05-25T04:35:39.931Z,4.43
2019-05-25T04:38:07.947Z,4.70
2019-05-25T04:40:36.331Z,4.47
2019-05-25T04:43:04.912Z,4.60
2019-05-25T04:45:33.566Z,4.97
2019-05-25T04:48:01.986Z,4.30
2019-05-25T04:50:30.647Z,4.10
2019-05-25T04:52:59.061Z,5.10
2019-05-25T04:55:27.447Z,5.70
2019-05-25T04:57:55.847Z,5.37
2019-05-25T05:00:24.553Z,5.80
2019-05-25T05:02:52.966Z,4.90
2019-05-25T05:05:21.356Z,5.17
2019-05-25T05:07:49.767Z,4.87
2019-05-25T05:10:18.292Z,5.23
2019-05-25T05:12:46.710Z,7.87
2019-05-25T05:15:15.639Z,7.23
2019-05-25T05:17:44.049Z,9.43
2019-05-25T05:20:12.983Z,6.40
2019-05-25T05:22:41.401Z,5.70
2019-05-25T05:25:10.831Z,6.27
2019-05-25T05:27:40.129Z,6.53
2019-05-25T05:30:10.797Z,7.30
2019-05-25T05:32:39.256Z,7.03
2019-05-25T05:35:08.518Z,7.03
2019-05-25T05:37:37.146Z,6.97
2019-05-25T05:40:07.682Z,7.10
2019-05-25T05:42:38.720Z,7.97
2019-05-25T05:45:08.449Z,7.23
2019-05-25T05:47:36.933Z,7.70
2019-05-25T05:50:10.285Z,8.03
2019-05-25T05:52:39.357Z,7.63
2019-05-25T05:55:10.206Z,7.50
2019-05-25T05:57:38.590Z,8.67
2019-05-25T06:00:09.943Z,8.17
2019-05-25T06:02:38.342Z,8.20
2019-05-25T06:05:07.193Z,7.30
2019-05-25T06:07:35.591Z,7.83
2019-05-25T06:10:05.959Z,7.80
2019-05-25T06:12:34.705Z,8.43
2019-05-25T06:15:05.042Z,6.97
2019-05-25T06:17:33.421Z,7.33
2019-05-25T06:20:01.811Z,7.70
2019-05-25T06:22:30.203Z,7.43
2019-05-25T06:24:58.652Z,7.03
2019-05-25T06:27:28.046Z,7.00
2019-05-25T06:29:56.506Z,7.03
2019-05-25T06:32:24.919Z,6.00
2019-05-25T06:34:53.309Z,6.10
2019-05-25T06:37:21.718Z,7.00
2019-05-25T06:39:50.120Z,6.40
2019-05-25T06:42:18.519Z,8.47
2019-05-25T06:44:46.935Z,6.73
2019-05-25T06:47:15.334Z,6.97
2019-05-25T06:49:43.739Z,6.10
2019-05-25T06:52:12.142Z,6.67
2019-05-25T06:54:40.618Z,7.10
2019-05-25T06:57:09.018Z,6.60
2019-05-25T06:59:37.694Z,6.90
2019-05-25T07:02:06.093Z,5.83
2019-05-25T07:04:34.523Z,5.90
2019-05-25T07:07:02.919Z,6.03
2019-05-25T07:09:31.320Z,6.00
2019-05-25T07:11:59.718Z,5.27
2019-05-25T07:14:28.279Z,4.93
2019-05-25T07:16:56.689Z,4.60
2019-05-25T07:19:25.243Z,4.10
2019-05-25T07:21:53.674Z,3.50
2019-05-25T07:24:22.061Z,3.60
2019-05-25T07:26:50.471Z,4.20
2019-05-25T07:29:18.874Z,3.17
2019-05-25T07:31:47.279Z,2.83
2019-05-25T07:34:15.667Z,2.60
2019-05-25T07:36:44.071Z,2.80
2019-05-25T07:39:12.484Z,3.40
2019-05-25T07:41:40.972Z,2.77
2019-05-25T07:44:09.360Z,2.13
2019-05-25T07:46:37.777Z,2.90
2019-05-25T07:49:06.175Z,2.10
2019-05-25T07:51:34.604Z,2.33
2019-05-25T07:54:03.016Z,2.03
2019-05-25T07:56:31.396Z,3.00
2019-05-25T07:58:59.824Z,3.10
2019-05-25T08:01:28.229Z,2.70
2019-05-25T08:03:56.891Z,2.40
2019-05-25T08:06:25.311Z,2.70
2019-05-25T08:08:53.708Z,2.07
2019-05-25T08:11:22.115Z,2.10
2019-05-25T08:13:50.523Z,1.80
2019-05-25T08:16:19.201Z,1.83
2019-05-25T08:18:47.589Z,1.60
2019-05-25T08:21:16.018Z,2.30
2019-05-25T08:23:44.406Z,1.90
2019-05-25T08:26:12.806Z,1.40
2019-05-25T08:28:41.463Z,2.00
2019-05-25T08:31:09.883Z,3.60
2019-05-25T08:33:38.276Z,1.70
2019-05-25T08:36:06.685Z,2.00
2019-05-25T08:38:35.077Z,1.70
2019-05-25T08:41:03.475Z,1.70
2019-05-25T08:43:32.753Z,1.70
2019-05-25T08:46:01.151Z,1.43
2019-05-25T08:48:29.551Z,1.63
2019-05-25T08:50:59.747Z,1.53
2019-05-25T08:53:40.552Z,1.50
2019-05-25T08:55:58.372Z,1.47
2019-05-25T08:58:26.785Z,1.50
2019-05-25T09:00:55.183Z,1.33
2019-05-25T09:03:23.607Z,1.32
2019-05-25T09:05:52.005Z,1.57
2019-05-25T09:08:20.418Z,1.37
2019-05-25T09:10:48.806Z,1.50
2019-05-25T09:13:17.226Z,1.90
2019-05-25T09:15:45.691Z,1.70
2019-05-25T09:18:14.105Z,1.40
2019-05-25T09:20:42.503Z,1.60
2019-05-25T09:23:10.904Z,1.40
2019-05-25T09:25:39.568Z,1.73
2019-05-25T09:28:07.976Z,1.70
2019-05-25T09:30:36.477Z,1.50
2019-05-25T09:33:04.972Z,1.90
2019-05-25T09:35:33.366Z,1.20
2019-05-25T09:38:01.766Z,1.63
2019-05-25T09:40:30.433Z,9.03
2019-05-25T09:42:58.884Z,4.30
2019-05-25T09:45:27.276Z,1.50
2019-05-25T09:47:55.686Z,1.40
2019-05-25T09:50:24.432Z,1.40
2019-05-25T09:52:52.860Z,1.23
2019-05-25T09:55:21.310Z,1.73
2019-05-25T09:57:49.730Z,1.40
2019-05-25T10:00:18.691Z,1.17
2019-05-25T10:02:47.250Z,1.40
2019-05-25T10:05:16.178Z,1.10
2019-05-25T10:07:44.640Z,1.10
2019-05-25T10:10:13.585Z,1.00
2019-05-25T10:12:41.983Z,1.20
2019-05-25T10:15:11.020Z,1.20
2019-05-25T10:17:39.473Z,1.20
2019-05-25T10:20:08.369Z,1.00
2019-05-25T10:22:37.143Z,1.20
2019-05-25T10:25:07.415Z,0.90
2019-05-25T10:27:35.816Z,1.00
2019-05-25T10:30:05.472Z,0.90
2019-05-25T10:32:33.877Z,1.50
2019-05-25T10:35:02.282Z,1.20
2019-05-25T10:37:30.691Z,1.20
2019-05-25T10:39:59.372Z,1.13
2019-05-25T10:42:28.055Z,1.13
2019-05-25T10:44:56.740Z,1.20
2019-05-25T10:47:25.129Z,1.20
2019-05-25T10:49:53.535Z,1.40
2019-05-25T10:52:21.993Z,6.77
2019-05-25T10:54:50.405Z,1.30
2019-05-25T10:57:18.803Z,1.00
2019-05-25T10:59:52.754Z,0.97
2019-05-25T11:02:17.341Z,1.40
2019-05-25T11:04:45.757Z,1.13
2019-05-25T11:07:14.150Z,0.93
2019-05-25T11:09:42.586Z,5.33
2019-05-25T11:12:11.380Z,1.50
2019-05-25T11:14:39.795Z,0.80
2019-05-25T11:17:08.236Z,1.03
2019-05-25T11:19:36.628Z,0.97
2019-05-25T11:22:05.322Z,1.00
2019-05-25T11:24:33.806Z,4.90
2019-05-25T11:27:02.265Z,1.47
2019-05-25T11:29:30.700Z,0.87
2019-05-25T11:32:03.702Z,0.97
2019-05-25T11:34:29.262Z,0.97
2019-05-25T11:36:57.929Z,1.00
2019-05-25T11:39:26.622Z,1.00
2019-05-25T11:41:55.034Z,0.77
2019-05-25T11:44:23.446Z,0.90
2019-05-25T11:46:51.870Z,0.70
2019-05-25T11:49:22.717Z,1.93
2019-05-25T11:51:53.961Z,1.27
2019-05-25T11:54:22.372Z,0.80
2019-05-25T11:56:50.784Z,1.00
2019-05-25T11:59:19.175Z,1.30
2019-05-25T12:01:47.587Z,1.10
2019-05-25T12:04:15.975Z,1.30
2019-05-25T12:06:44.392Z,1.47
2019-05-25T12:09:12.790Z,1.03
2019-05-25T12:11:41.266Z,0.90
2019-05-25T12:14:09.853Z,1.10
2019-05-25T12:16:38.239Z,3.00
2019-05-25T12:19:06.707Z,1.30
2019-05-25T12:21:35.118Z,1.03
2019-05-25T12:24:03.514Z,1.53
2019-05-25T12:26:31.908Z,3.07
2019-05-25T12:29:00.356Z,3.13
2019-05-25T12:31:28.718Z,2.80
2019-05-25T12:33:57.137Z,3.50
2019-05-25T12:36:25.537Z,4.27
2019-05-25T12:38:53.976Z,4.00
2019-05-25T12:41:22.655Z,4.40
2019-05-25T12:43:51.043Z,3.73
2019-05-25T12:46:19.457Z,3.90
2019-05-25T12:48:47.848Z,4.47
2019-05-25T12:51:17.825Z,4.80
2019-05-25T12:53:46.386Z,4.50
2019-05-25T12:56:14.784Z,4.40
2019-05-25T12:58:43.191Z,5.23
2019-05-25T13:01:11.582Z,4.47
2019-05-25T13:03:39.990Z,4.63
2019-05-25T13:06:08.386Z,4.50
2019-05-25T13:08:36.808Z,4.50
2019-05-25T13:11:09.260Z,4.93
2019-05-25T13:13:35.397Z,4.23
2019-05-25T13:16:04.322Z,4.20
2019-05-25T13:18:32.691Z,4.37
2019-05-25T13:21:01.092Z,3.20
2019-05-25T13:23:29.492Z,3.93
2019-05-25T13:25:57.898Z,3.80
2019-05-25T13:28:26.604Z,3.37
2019-05-25T13:31:08.796Z,3.03
2019-05-25T13:33:25.179Z,2.87
2019-05-25T13:35:53.574Z,2.87
2019-05-25T13:38:22.257Z,2.83
2019-05-25T13:40:51.367Z,3.02
2019-05-25T13:43:19.763Z,2.40
2019-05-25T13:45:48.184Z,2.77
2019-05-25T13:48:16.623Z,2.70
2019-05-25T13:50:45.184Z,2.80
2019-05-25T13:53:13.609Z,2.63
2019-05-25T13:55:42.035Z,2.37
2019-05-25T13:58:10.444Z,2.80
2019-05-25T14:00:38.849Z,3.10
2019-05-25T14:03:07.272Z,2.53
2019-05-25T14:05:35.685Z,4.10
2019-05-25T14:08:04.101Z,2.53
2019-05-25T14:10:32.495Z,2.60
2019-05-25T14:13:00.902Z,2.20
2019-05-25T14:15:29.310Z,2.47
2019-05-25T14:17:57.788Z,3.20
2019-05-25T14:20:26.522Z,2.70
2019-05-25T14:22:54.930Z,1.90
2019-05-25T14:25:23.336Z,2.07
2019-05-25T14:27:52.104Z,2.07
2019-05-25T14:30:20.810Z,1.60
2019-05-25T14:32:49.201Z,1.70
2019-05-25T14:35:17.618Z,1.70
2019-05-25T14:37:46.020Z,1.50
2019-05-25T14:40:14.658Z,1.27
2019-05-25T14:42:43.061Z,1.37
2019-05-25T14:45:12.805Z,1.23
2019-05-25T14:47:41.209Z,1.00
2019-05-25T14:50:09.863Z,0.90
2019-05-25T14:52:38.278Z,0.80
2019-05-25T14:55:08.404Z,0.83
2019-05-25T14:57:36.834Z,0.77
2019-05-25T15:00:10.265Z,0.73
2019-05-25T15:02:38.657Z,0.90
2019-05-25T15:05:07.213Z,0.70
2019-05-25T15:07:35.620Z,0.80
2019-05-25T15:10:05.980Z,0.70
2019-05-25T15:12:34.436Z,0.80
2019-05-25T15:15:02.851Z,0.87
2019-05-25T15:17:31.261Z,0.60
2019-05-25T15:20:00.089Z,0.77
2019-05-25T15:22:28.482Z,0.67
2019-05-25T15:24:56.890Z,0.70
2019-05-25T15:27:25.292Z,0.70
2019-05-25T15:29:53.706Z,0.60
2019-05-25T15:32:22.101Z,0.60
2019-05-25T15:34:50.517Z,1.87
2019-05-25T15:37:18.939Z,1.20
2019-05-25T15:39:47.341Z,1.70
2019-05-25T15:42:15.763Z,1.30
2019-05-25T15:44:44.159Z,0.70
2019-05-25T15:47:12.823Z,0.67
2019-05-25T15:49:41.224Z,0.50
2019-05-25T15:52:09.635Z,0.70
2019-05-25T15:54:38.124Z,0.50
2019-05-25T15:57:06.558Z,0.60
2019-05-25T15:59:34.963Z,0.60
2019-05-25T16:02:03.451Z,0.70
2019-05-25T16:04:31.925Z,0.63
2019-05-25T16:07:00.409Z,0.70
2019-05-25T16:09:29.087Z,0.90
2019-05-25T16:11:57.510Z,0.70
2019-05-25T16:14:25.901Z,0.70
2019-05-25T16:16:54.327Z,1.00
2019-05-25T16:19:22.722Z,1.00
2019-05-25T16:21:51.128Z,0.80
2019-05-25T16:24:19.529Z,0.70
2019-05-25T16:26:47.933Z,0.95
2019-05-25T16:29:16.328Z,0.93
2019-05-25T16:31:44.735Z,1.10
2019-05-25T16:34:13.143Z,1.03
2019-05-25T16:36:41.551Z,0.80
2019-05-25T16:39:09.955Z,0.97
2019-05-25T16:41:38.370Z,1.10
2019-05-25T16:44:06.757Z,0.90
2019-05-25T16:46:36.797Z,1.60
2019-05-25T16:49:05.362Z,1.00
2019-05-25T16:51:33.753Z,1.00
2019-05-25T16:54:02.490Z,1.10
2019-05-25T16:56:30.881Z,0.87
2019-05-25T16:59:08.128Z,0.87
2019-05-25T17:01:47.402Z,1.00
2019-05-25T17:04:07.149Z,0.83
2019-05-25T17:06:35.912Z,0.90
2019-05-25T17:09:05.872Z,0.90
2019-05-25T17:11:34.518Z,0.70
2019-05-25T17:14:02.942Z,0.70
2019-05-25T17:16:31.361Z,12.23
2019-05-25T17:18:59.770Z,9.10
2019-05-25T17:21:28.180Z,1.40
2019-05-25T17:23:56.600Z,1.20
2019-05-25T17:26:24.996Z,0.90
2019-05-25T17:28:53.408Z,0.90
2019-05-25T17:31:21.791Z,0.70
2019-05-25T17:33:50.579Z,0.80
2019-05-25T17:36:18.972Z,4.70
2019-05-25T17:38:47.371Z,1.00
2019-05-25T17:41:15.796Z,0.80
2019-05-25T17:43:44.187Z,1.00
2019-05-25T17:46:12.840Z,0.70
2019-05-25T17:48:41.759Z,1.70
2019-05-25T17:51:10.179Z,1.70
2019-05-25T17:53:38.929Z,0.90
2019-05-25T17:56:07.442Z,1.00
2019-05-25T17:58:35.858Z,1.00
2019-05-25T18:01:04.561Z,1.80
2019-05-25T18:03:33.024Z,1.00
2019-05-25T18:06:01.539Z,0.80
2019-05-25T18:08:30.010Z,0.82
2019-05-25T18:10:58.519Z,1.00
2019-05-25T18:13:29.050Z,0.90
2019-05-25T18:15:57.271Z,1.00
2019-05-25T18:18:25.765Z,0.90
2019-05-25T18:20:54.207Z,0.80
2019-05-25T18:23:22.747Z,0.85
2019-05-25T18:25:51.366Z,0.70
2019-05-25T18:28:19.782Z,0.90
2019-05-25T18:30:48.320Z,0.80
2019-05-25T18:33:16.759Z,0.80
2019-05-25T18:35:45.257Z,0.60
2019-05-25T18:38:13.732Z,0.90
2019-05-25T18:40:42.146Z,0.73
2019-05-25T18:43:10.627Z,0.60
2019-05-25T18:45:39.034Z,0.80
2019-05-25T18:48:07.555Z,0.80
2019-05-25T18:50:35.996Z,0.80
2019-05-25T18:53:04.674Z,0.90
2019-05-25T18:55:33.237Z,0.70
2019-05-25T18:58:01.804Z,0.90
2019-05-25T19:00:30.532Z,0.80
2019-05-25T19:02:59.226Z,0.90
2019-05-25T19:05:27.742Z,1.10
2019-05-25T19:07:56.208Z,1.10
2019-05-25T19:10:24.898Z,1.23
2019-05-25T19:12:53.395Z,1.30
2019-05-25T19:15:22.269Z,0.90
2019-05-25T19:17:50.714Z,1.23
2019-05-25T19:20:21.262Z,1.20
2019-05-25T19:22:49.868Z,1.30
2019-05-25T19:25:19.231Z,1.43
2019-05-25T19:27:47.735Z,1.40
2019-05-25T19:30:16.617Z,1.43
2019-05-25T19:32:45.079Z,1.40
2019-05-25T19:35:13.758Z,1.47
2019-05-25T19:37:42.765Z,1.20
2019-05-25T19:40:11.726Z,2.20
2019-05-25T19:42:40.363Z,2.93
2019-05-25T19:45:09.555Z,2.00
2019-05-25T19:47:38.113Z,1.73
2019-05-25T19:50:07.912Z,2.07
2019-05-25T19:52:36.443Z,2.10
2019-05-25T19:55:09.240Z,2.00
2019-05-25T19:57:37.708Z,1.73
2019-05-25T20:00:10.487Z,2.00
2019-05-25T20:02:39.039Z,1.90
2019-05-25T20:05:16.201Z,1.70
2019-05-25T20:07:39.087Z,1.83
2019-05-25T20:10:09.441Z,1.93
2019-05-25T20:12:37.998Z,1.60
2019-05-25T20:15:08.960Z,1.90
2019-05-25T20:17:37.494Z,1.60
2019-05-25T20:20:07.486Z,1.50
2019-05-25T20:22:35.903Z,1.65
2019-05-25T20:25:07.440Z,1.30
2019-05-25T20:27:36.069Z,1.70
2019-05-25T20:30:07.604Z,2.00
2019-05-25T20:32:36.130Z,1.80
2019-05-25T20:35:05.999Z,1.60
2019-05-25T20:37:34.530Z,1.60
2019-05-25T20:40:03.303Z,1.40
2019-05-25T20:42:31.916Z,1.30
2019-05-25T20:45:00.360Z,1.50
2019-05-25T20:47:28.837Z,1.80
2019-05-25T20:49:57.253Z,1.83
2019-05-25T20:52:25.720Z,1.70
2019-05-25T20:54:54.442Z,1.53
2019-05-25T20:57:22.901Z,1.53
2019-05-25T20:59:51.314Z,1.60
2019-05-25T21:02:19.779Z,1.30
2019-05-25T21:04:48.195Z,1.90
2019-05-25T21:07:16.693Z,1.47
2019-05-25T21:09:45.148Z,1.60
2019-05-25T21:12:13.552Z,2.33
2019-05-25T21:14:41.993Z,1.60
2019-05-25T21:17:10.511Z,1.70
2019-05-25T21:19:38.917Z,1.80
2019-05-25T21:22:07.352Z,1.70
2019-05-25T21:24:36.141Z,1.80
2019-05-25T21:27:05.028Z,2.13
2019-05-25T21:29:33.475Z,2.00
2019-05-25T21:32:01.866Z,1.97
2019-05-25T21:34:30.564Z,2.07
2019-05-25T21:36:58.952Z,1.77
2019-05-25T21:39:27.356Z,1.73
2019-05-25T21:41:55.757Z,1.70
2019-05-25T21:44:24.547Z,1.60
2019-05-25T21:46:52.940Z,1.80
2019-05-25T21:49:21.365Z,2.00
2019-05-25T21:51:49.751Z,1.90
2019-05-25T21:54:18.174Z,1.90
2019-05-25T21:56:46.568Z,2.13
2019-05-25T21:59:14.998Z,2.00
2019-05-25T22:01:43.383Z,2.00
2019-05-25T22:04:11.785Z,2.20
2019-05-25T22:06:40.229Z,2.70
2019-05-25T22:09:08.964Z,2.50
2019-05-25T22:11:37.354Z,2.17
2019-05-25T22:14:05.779Z,2.33
2019-05-25T22:16:34.189Z,1.93
2019-05-25T22:19:02.590Z,2.37
2019-05-25T22:21:31.005Z,1.90
2019-05-25T22:23:59.420Z,2.40
2019-05-25T22:26:28.157Z,2.37
2019-05-25T22:28:56.574Z,2.20
2019-05-25T22:31:24.971Z,2.10
2019-05-25T22:33:53.365Z,2.00
2019-05-25T22:36:21.768Z,2.17
2019-05-25T22:38:50.415Z,2.03
2019-05-25T22:41:19.949Z,1.93
2019-05-25T22:43:48.569Z,2.20
2019-05-25T22:46:16.991Z,2.10
2019-05-25T22:48:45.397Z,2.07
2019-05-25T22:51:13.797Z,2.03
2019-05-25T22:53:42.770Z,2.00
2019-05-25T22:56:11.162Z,2.47
2019-05-25T22:58:39.566Z,1.93
2019-05-25T23:01:07.976Z,3.03
2019-05-25T23:03:36.434Z,2.60
2019-05-25T23:06:04.851Z,2.03
2019-05-25T23:08:33.316Z,2.13
2019-05-25T23:11:01.736Z,1.97
2019-05-25T23:13:30.135Z,2.40
2019-05-25T23:15:58.537Z,2.07
2019-05-25T23:18:26.960Z,2.50
2019-05-25T23:20:55.367Z,2.20
2019-05-25T23:23:23.753Z,2.10
2019-05-25T23:25:53.808Z,2.30
2019-05-25T23:28:22.200Z,2.13
2019-05-25T23:31:08.593Z,2.43
2019-05-25T23:33:36.964Z,2.20
2019-05-25T23:36:05.627Z,2.03
2019-05-25T23:38:34.030Z,2.30
2019-05-25T23:41:02.434Z,2.20
2019-05-25T23:43:30.824Z,2.53
2019-05-25T23:45:59.238Z,2.23
2019-05-25T23:48:27.629Z,2.07
2019-05-25T23:50:56.037Z,2.10
2019-05-25T23:53:24.442Z,2.17
2019-05-25T23:55:52.841Z,2.43
2019-05-25T23:58:21.234Z,2.13
